Somerdale, NJ (08083)

12:21 PM EDT on July 30, 2016 (GMT -0400)
Magnolia Borough | | Change Station

Elev 92 ft 39.85 °N, 75.03 °W | Updated 8 seconds ago

Mostly Cloudy
Mostly Cloudy
91.4 °F
Feels Like 98 °F
N
2.0
Wind Variable Wind from NE
Gusts 4.9 mph

Today
High -- | Low -- °F
--% Chance of Precip.
Yesterday
High -- | Low -- °F
Precip. -- in
Pressure 29.99 in
Visibility 10.0 miles
Clouds Scattered Clouds 2500 ft
Scattered Clouds 10000 ft
Scattered Clouds 15000 ft
Mostly Cloudy 22000 ft
Heat Index 98 °F
Dew Point 71 °F
Humidity 52%
Rainfall 0.00 in
Snow Depth Not available.
5:57 AM 8:14 PM
Waning Crescent, 12% visible
METAR KPHL 301554Z 18007KT 10SM SCT025 SCT100 SCT150 BKN220 31/22 A2999 RMK AO2 SLP156 T03060222
Pressure 29.99 in
Visibility 10.0 miles
Clouds Scattered Clouds 2500 ft
Scattered Clouds 10000 ft
Scattered Clouds 15000 ft
Mostly Cloudy 22000 ft
Heat Index 98 °F
Dew Point 71 °F
Humidity 52%
Rainfall 0.00 in
Snow Depth Not available.
5:57 AM 8:14 PM
Waning Crescent, 12% visible
METAR KPHL 301554Z 18007KT 10SM SCT025 SCT100 SCT150 BKN220 31/22 A2999 RMK AO2 SLP156 T03060222

10-Day Weather Forecast

Almanac

Astronomy

Jul. 30, 2016 Rise Set
Actual Time
Civil Twilight
Nautical Twilight
Astronomical Twilight
Moon
Length of Visible Light
Length of Day
Tomorrow will be .
, % of the Moon is Illuminated

Today's Extremes

State Highs State Lows

Community

WunderPhotos

Upload Photos

1,928,592 photos uploaded!

WunderBlog® & News

Nearby

Air Quality

  Air Quality AQ Index Pollutant
Not available.

Snow Depth

Station Depth Elevation

Earthquake Activity

City Distance Mag. Time & Date
Minimum magnitude displayed is 2.5.

Coastal Water Temperatures

Place Temperature

Stations

Nearby Weather Stations

Station Location Temp. Windchill Dew Point Humidity Wind Precip. Elev Updated Type
                   

Watches & Warnings

There are currently no watches in effect.